sensor_id;sensor_type;location;lat;lon;timestamp;temperature;humidity
22984;DHT22;11658;48.908;9.140;2024-01-16T05:02:36;-3.10;99.90
22984;DHT22;11658;48.908;9.140;2024-01-16T05:05:02;-1.70;99.90
22984;DHT22;11658;48.908;9.140;2024-01-16T05:07:29;-3.20;99.90
22984;DHT22;11658;48.908;9.140;2024-01-16T05:09:55;-3.40;99.90
22984;DHT22;11658;48.908;9.140;2024-01-16T05:12:20;-3.30;99.90
22984;DHT22;11658;48.908;9.140;2024-01-16T05:14:47;-3.30;99.90
22984;DHT22;11658;48.908;9.140;2024-01-16T05:17:14;-1.00;99.90
22984;DHT22;11658;48.908;9.140;2024-01-16T05:19:40;-3.30;99.90
22984;DHT22;11658;48.908;9.140;2024-01-16T05:22:05;-2.40;99.90
22984;DHT22;11658;48.908;9.140;2024-01-16T05:24:31;-3.50;99.90
22984;DHT22;11658;48.908;9.140;2024-01-16T05:26:57;-3.40;99.90
22984;DHT22;11658;48.908;9.140;2024-01-16T05:29:23;-3.30;99.90
22984;DHT22;11658;48.908;9.140;2024-01-16T05:31:48;-3.50;99.90
22984;DHT22;11658;48.908;9.140;2024-01-16T05:34:14;-3.10;99.90
22984;DHT22;11658;48.908;9.140;2024-01-16T05:36:41;-3.20;99.90
22984;DHT22;11658;48.908;9.140;2024-01-16T05:39:07;-3.30;99.90
22984;DHT22;11658;48.908;9.140;2024-01-16T05:41:34;-3.10;99.90
22984;DHT22;11658;48.908;9.140;2024-01-16T05:44:00;-3.00;99.90
22984;DHT22;11658;48.908;9.140;2024-01-16T05:46:26;-1.30;99.90
22984;DHT22;11658;48.908;9.140;2024-01-16T05:48:52;-0.90;99.90
22984;DHT22;11658;48.908;9.140;2024-01-16T05:51:18;-3.00;99.90
22984;DHT22;11658;48.908;9.140;2024-01-16T05:53:43;-3.10;99.90
22984;DHT22;11658;48.908;9.140;2024-01-16T05:56:09;-3.00;99.90
22984;DHT22;11658;48.908;9.140;2024-01-16T05:58:34;-3.20;99.90
22984;DHT22;11658;48.908;9.140;2024-01-16T06:01:04;-3.00;99.90
22984;DHT22;11658;48.908;9.140;2024-01-16T06:03:30;-3.10;99.90
22984;DHT22;11658;48.908;9.140;2024-01-16T06:05:56;-3.30;99.90
22984;DHT22;11658;48.908;9.140;2024-01-16T06:08:22;-3.10;99.90
22984;DHT22;11658;48.908;9.140;2024-01-16T06:10:47;-3.10;99.90
22984;DHT22;11658;48.908;9.140;2024-01-16T06:13:13;-3.20;99.90
22984;DHT22;11658;48.908;9.140;2024-01-16T06:15:38;-3.00;99.90
22984;DHT22;11658;48.908;9.140;2024-01-16T06:18:04;-3.10;99.90
22984;DHT22;11658;48.908;9.140;2024-01-16T06:20:30;-1.90;99.90
22984;DHT22;11658;48.908;9.140;2024-01-16T06:22:56;-2.80;99.90
22984;DHT22;11658;48.908;9.140;2024-01-16T06:25:22;-1.90;99.90
22984;DHT22;11658;48.908;9.140;2024-01-16T06:27:48;-2.90;99.90
22984;DHT22;11658;48.908;9.140;2024-01-16T06:30:14;-2.90;99.90
22984;DHT22;11658;48.908;9.140;2024-01-16T06:32:39;-2.90;99.90
22984;DHT22;11658;48.908;9.140;2024-01-16T06:35:05;-3.10;99.90
22984;DHT22;11658;48.908;9.140;2024-01-16T06:37:31;-2.80;99.90
22984;DHT22;11658;48.908;9.140;2024-01-16T06:39:57;-2.90;99.90
22984;DHT22;11658;48.908;9.140;2024-01-16T06:42:22;-2.90;99.90
22984;DHT22;11658;48.908;9.140;2024-01-16T06:44:48;-3.00;99.90
22984;DHT22;11658;48.908;9.140;2024-01-16T06:47:13;-3.00;99.90
22984;DHT22;11658;48.908;9.140;2024-01-16T06:49:40;-2.80;99.90
22984;DHT22;11658;48.908;9.140;2024-01-16T06:52:07;-2.90;99.90
22984;DHT22;11658;48.908;9.140;2024-01-16T06:54:33;-2.70;99.90
22984;DHT22;11658;48.908;9.140;2024-01-16T06:56:59;-2.60;99.90
22984;DHT22;11658;48.908;9.140;2024-01-16T06:59:24;-1.00;99.90
22984;DHT22;11658;48.908;9.140;2024-01-16T07:01:50;-1.50;99.90
22984;DHT22;11658;48.908;9.140;2024-01-16T07:04:16;-2.50;99.90
22984;DHT22;11658;48.908;9.140;2024-01-16T07:06:42;-2.60;99.90
22984;DHT22;11658;48.908;9.140;2024-01-16T07:09:09;-0.60;99.90
22984;DHT22;11658;48.908;9.140;2024-01-16T07:11:36;-2.60;99.90
22984;DHT22;11658;48.908;9.140;2024-01-16T07:14:03;-2.70;99.90
22984;DHT22;11658;48.908;9.140;2024-01-16T07:16:29;-2.40;99.90
22984;DHT22;11658;48.908;9.140;2024-01-16T07:18:54;-2.80;99.90
22984;DHT22;11658;48.908;9.140;2024-01-16T07:21:21;-2.70;99.90
22984;DHT22;11658;48.908;9.140;2024-01-16T07:23:47;-2.60;99.90
22984;DHT22;11658;48.908;9.140;2024-01-16T07:26:13;-1.00;99.90
22984;DHT22;11658;48.908;9.140;2024-01-16T07:28:38;-2.60;99.90
22984;DHT22;11658;48.908;9.140;2024-01-16T07:31:04;-2.70;99.90
22984;DHT22;11658;48.908;9.140;2024-01-16T07:33:31;-2.80;99.90
22984;DHT22;11658;48.908;9.140;2024-01-16T07:35:57;-2.80;99.90
22984;DHT22;11658;48.908;9.140;2024-01-16T07:38:22;-2.60;99.90
22984;DHT22;11658;48.908;9.140;2024-01-16T07:40:48;-2.00;99.90
22984;DHT22;11658;48.908;9.140;2024-01-16T07:43:14;-1.50;99.90
22984;DHT22;11658;48.908;9.140;2024-01-16T07:45:40;-2.60;99.90
22984;DHT22;11658;48.908;9.140;2024-01-16T07:48:06;-2.50;99.90
22984;DHT22;11658;48.908;9.140;2024-01-16T07:50:33;-2.50;99.90
22984;DHT22;11658;48.908;9.140;2024-01-16T07:52:59;-2.60;99.90
22984;DHT22;11658;48.908;9.140;2024-01-16T07:55:25;-2.40;99.90
22984;DHT22;11658;48.908;9.140;2024-01-16T07:57:50;-2.40;99.90
22984;DHT22;11658;48.908;9.140;2024-01-16T08:00:16;-2.50;99.90
22984;DHT22;11658;48.908;9.140;2024-01-16T08:02:42;-2.30;99.90
22984;DHT22;11658;48.908;9.140;2024-01-16T08:05:08;-3.10;99.90
22984;DHT22;11658;48.908;9.140;2024-01-16T08:07:33;-2.30;99.90
22984;DHT22;11658;48.908;9.140;2024-01-16T08:10:00;-1.10;99.90
22984;DHT22;11658;48.908;9.140;2024-01-16T08:12:26;-2.20;99.90
22984;DHT22;11658;48.908;9.140;2024-01-16T08:14:51;-2.20;99.90
22984;DHT22;11658;48.908;9.140;2024-01-16T08:17:17;-2.30;99.90
22984;DHT22;11658;48.908;9.140;2024-01-16T08:19:43;-2.40;99.90
22984;DHT22;11658;48.908;9.140;2024-01-16T08:22:08;-2.20;99.90
22984;DHT22;11658;48.908;9.140;2024-01-16T08:24:34;-2.20;99.90
22984;DHT22;11658;48.908;9.140;2024-01-16T08:27:00;-2.20;99.90
22984;DHT22;11658;48.908;9.140;2024-01-16T08:29:25;-2.30;99.90
22984;DHT22;11658;48.908;9.140;2024-01-16T08:31:51;-2.20;99.90
22984;DHT22;11658;48.908;9.140;2024-01-16T08:34:17;-0.40;99.90
22984;DHT22;11658;48.908;9.140;2024-01-16T08:36:44;-2.00;99.90
22984;DHT22;11658;48.908;9.140;2024-01-16T08:39:10;-2.00;99.90
22984;DHT22;11658;48.908;9.140;2024-01-16T08:41:36;-1.40;99.90
22984;DHT22;11658;48.908;9.140;2024-01-16T08:44:01;-1.90;99.90
22984;DHT22;11658;48.908;9.140;2024-01-16T08:46:27;-0.20;99.90
22984;DHT22;11658;48.908;9.140;2024-01-16T08:48:53;-1.80;99.90
22984;DHT22;11658;48.908;9.140;2024-01-16T08:51:19;-1.70;99.90
22984;DHT22;11658;48.908;9.140;2024-01-16T08:53:45;-1.70;99.90
22984;DHT22;11658;48.908;9.140;2024-01-16T08:56:11;-1.80;99.90
22984;DHT22;11658;48.908;9.140;2024-01-16T08:58:38;0.20;99.90
22984;DHT22;11658;48.908;9.140;2024-01-16T09:01:05;0.40;99.90
22984;DHT22;11658;48.908;9.140;2024-01-16T09:03:34;-3.20;99.90
22984;DHT22;11658;48.908;9.140;2024-01-16T09:06:00;-1.60;99.90
22984;DHT22;11658;48.908;9.140;2024-01-16T09:08:26;-1.60;99.90
22984;DHT22;11658;48.908;9.140;2024-01-16T09:10:53;-1.50;99.90
22984;DHT22;11658;48.908;9.140;2024-01-16T09:13:18;-1.50;99.90
22984;DHT22;11658;48.908;9.140;2024-01-16T09:15:46;-1.40;99.90
22984;DHT22;11658;48.908;9.140;2024-01-16T09:18:12;-1.20;99.90
22984;DHT22;11658;48.908;9.140;2024-01-16T09:20:38;0.90;99.90
22984;DHT22;11658;48.908;9.140;2024-01-16T09:23:04;0.50;99.90
22984;DHT22;11658;48.908;9.140;2024-01-16T09:25:30;1.10;99.90
22984;DHT22;11658;48.908;9.140;2024-01-16T09:27:55;-1.00;99.90
22984;DHT22;11658;48.908;9.140;2024-01-16T09:30:21;-1.00;99.90
22984;DHT22;11658;48.908;9.140;2024-01-16T09:32:48;-1.10;99.90
22984;DHT22;11658;48.908;9.140;2024-01-16T09:35:14;-1.20;99.90
22984;DHT22;11658;48.908;9.140;2024-01-16T09:37:40;1.00;99.90
22984;DHT22;11658;48.908;9.140;2024-01-16T09:40:06;-1.20;99.90
22984;DHT22;11658;48.908;9.140;2024-01-16T09:42:32;-1.00;99.90
22984;DHT22;11658;48.908;9.140;2024-01-16T09:45:00;0.20;99.90
22984;DHT22;11658;48.908;9.140;2024-01-16T09:47:30;-0.90;99.90
22984;DHT22;11658;48.908;9.140;2024-01-16T09:50:02;1.20;99.90
22984;DHT22;11658;48.908;9.140;2024-01-16T09:52:29;-0.70;99.90
22984;DHT22;11658;48.908;9.140;2024-01-16T09:54:55;-0.70;99.90
22984;DHT22;11658;48.908;9.140;2024-01-16T09:57:25;-0.70;99.90
22984;DHT22;11658;48.908;9.140;2024-01-16T09:59:52;1.00;99.90
22984;DHT22;11658;48.908;9.140;2024-01-16T10:02:19;-0.50;99.90
22984;DHT22;11658;48.908;9.140;2024-01-16T10:04:46;-0.70;99.90
22984;DHT22;11658;48.908;9.140;2024-01-16T10:07:14;-0.60;99.90
22984;DHT22;11658;48.908;9.140;2024-01-16T10:09:41;-0.70;99.90
22984;DHT22;11658;48.908;9.140;2024-01-16T10:12:08;1.50;99.90
22984;DHT22;11658;48.908;9.140;2024-01-16T10:14:36;-0.50;99.90
22984;DHT22;11658;48.908;9.140;2024-01-16T10:17:04;-0.60;99.90
22984;DHT22;11658;48.908;9.140;2024-01-16T10:19:31;-0.60;99.90
22984;DHT22;11658;48.908;9.140;2024-01-16T10:22:04;1.10;99.90
22984;DHT22;11658;48.908;9.140;2024-01-16T10:24:32;-0.60;99.90
22984;DHT22;11658;48.908;9.140;2024-01-16T10:27:01;-0.10;99.90
22984;DHT22;11658;48.908;9.140;2024-01-16T10:29:31;0.30;99.90
22984;DHT22;11658;48.908;9.140;2024-01-16T10:31:58;0.40;99.90
22984;DHT22;11658;48.908;9.140;2024-01-16T10:34:24;1.10;99.90
22984;DHT22;11658;48.908;9.140;2024-01-16T10:36:51;0.70;99.90
22984;DHT22;11658;48.908;9.140;2024-01-16T10:39:18;1.90;99.90
22984;DHT22;11658;48.908;9.140;2024-01-16T10:41:57;0.60;99.90
22984;DHT22;11658;48.908;9.140;2024-01-16T10:44:23;1.10;99.90
22984;DHT22;11658;48.908;9.140;2024-01-16T10:46:48;1.10;99.90
22984;DHT22;11658;48.908;9.140;2024-01-16T10:49:14;1.50;99.90
22984;DHT22;11658;48.908;9.140;2024-01-16T10:51:43;2.00;99.90
22984;DHT22;11658;48.908;9.140;2024-01-16T10:54:11;3.40;99.90
22984;DHT22;11658;48.908;9.140;2024-01-16T10:56:44;2.80;99.90
22984;DHT22;11658;48.908;9.140;2024-01-16T11:01:41;1.90;99.90
22984;DHT22;11658;48.908;9.140;2024-01-16T11:04:09;2.10;99.90
22984;DHT22;11658;48.908;9.140;2024-01-16T11:06:35;3.20;99.90
22984;DHT22;11658;48.908;9.140;2024-01-16T11:09:01;2.40;99.90
22984;DHT22;11658;48.908;9.140;2024-01-16T11:11:28;4.30;99.90
22984;DHT22;11658;48.908;9.140;2024-01-16T11:13:54;2.20;99.90
22984;DHT22;11658;48.908;9.140;2024-01-16T11:16:21;2.40;99.90
22984;DHT22;11658;48.908;9.140;2024-01-16T11:18:48;2.40;99.90
22984;DHT22;11658;48.908;9.140;2024-01-16T11:21:14;2.30;99.90
22984;DHT22;11658;48.908;9.140;2024-01-16T11:23:41;2.50;99.90
22984;DHT22;11658;48.908;9.140;2024-01-16T11:28:53;2.70;99.90
22984;DHT22;11658;48.908;9.140;2024-01-16T11:31:33;2.40;99.90
22984;DHT22;11658;48.908;9.140;2024-01-16T11:34:00;2.60;99.90
22984;DHT22;11658;48.908;9.140;2024-01-16T11:39:24;2.80;99.90
22984;DHT22;11658;48.908;9.140;2024-01-16T11:41:58;2.90;99.90
22984;DHT22;11658;48.908;9.140;2024-01-16T11:47:10;4.60;99.90
22984;DHT22;11658;48.908;9.140;2024-01-16T11:49:40;3.60;99.90
22984;DHT22;11658;48.908;9.140;2024-01-16T11:52:06;3.50;99.90
22984;DHT22;11658;48.908;9.140;2024-01-16T11:54:33;4.70;99.90
22984;DHT22;11658;48.908;9.140;2024-01-16T12:05:12;3.20;99.90
22984;DHT22;11658;48.908;9.140;2024-01-16T12:07:49;2.70;99.90
22984;DHT22;11658;48.908;9.140;2024-01-16T12:10:19;3.50;99.90
22984;DHT22;11658;48.908;9.140;2024-01-16T12:12:46;2.60;99.90
22984;DHT22;11658;48.908;9.140;2024-01-16T12:15:20;3.90;99.90
22984;DHT22;11658;48.908;9.140;2024-01-16T12:17:59;2.50;99.90
22984;DHT22;11658;48.908;9.140;2024-01-16T12:20:30;4.40;99.90
22984;DHT22;11658;48.908;9.140;2024-01-16T12:25:22;4.40;99.90
22984;DHT22;11658;48.908;9.140;2024-01-16T12:27:59;4.00;99.90
22984;DHT22;11658;48.908;9.140;2024-01-16T12:30:35;3.40;99.90
22984;DHT22;11658;48.908;9.140;2024-01-16T12:33:08;4.60;99.90
22984;DHT22;11658;48.908;9.140;2024-01-16T12:35:37;3.30;99.90
22984;DHT22;11658;48.908;9.140;2024-01-16T12:38:05;3.60;99.90
22984;DHT22;11658;48.908;9.140;2024-01-16T12:40:32;3.60;99.90
22984;DHT22;11658;48.908;9.140;2024-01-16T12:42:59;3.60;99.90
22984;DHT22;11658;48.908;9.140;2024-01-16T12:45:25;3.60;99.90
22984;DHT22;11658;48.908;9.140;2024-01-16T12:47:52;3.50;99.90
22984;DHT22;11658;48.908;9.140;2024-01-16T12:50:26;3.40;99.90
22984;DHT22;11658;48.908;9.140;2024-01-16T12:53:08;4.40;99.90
22984;DHT22;11658;48.908;9.140;2024-01-16T12:55:36;3.50;99.90
22984;DHT22;11658;48.908;9.140;2024-01-16T12:58:35;3.40;99.90
22984;DHT22;11658;48.908;9.140;2024-01-16T13:01:25;3.40;99.90
22984;DHT22;11658;48.908;9.140;2024-01-16T13:03:51;3.40;99.90
22984;DHT22;11658;48.908;9.140;2024-01-16T13:06:18;4.90;99.90
22984;DHT22;11658;48.908;9.140;2024-01-16T13:08:50;3.30;99.90
22984;DHT22;11658;48.908;9.140;2024-01-16T13:11:16;5.10;99.90
22984;DHT22;11658;48.908;9.140;2024-01-16T13:13:46;3.00;99.90
22984;DHT22;11658;48.908;9.140;2024-01-16T13:16:13;3.70;99.90
22984;DHT22;11658;48.908;9.140;2024-01-16T13:18:39;2.50;99.90
22984;DHT22;11658;48.908;9.140;2024-01-16T13:21:05;2.10;99.90
22984;DHT22;11658;48.908;9.140;2024-01-16T13:23:31;4.00;99.90
22984;DHT22;11658;48.908;9.140;2024-01-16T13:25:57;2.30;99.90
22984;DHT22;11658;48.908;9.140;2024-01-16T13:28:25;2.80;99.90
22984;DHT22;11658;48.908;9.140;2024-01-16T13:30:51;2.60;99.90
22984;DHT22;11658;48.908;9.140;2024-01-16T13:33:17;2.60;99.90
22984;DHT22;11658;48.908;9.140;2024-01-16T13:35:45;3.00;99.90
22984;DHT22;11658;48.908;9.140;2024-01-16T13:38:14;4.10;99.90
22984;DHT22;11658;48.908;9.140;2024-01-16T13:40:44;4.50;99.90
22984;DHT22;11658;48.908;9.140;2024-01-16T13:43:10;5.20;99.90
22984;DHT22;11658;48.908;9.140;2024-01-16T13:45:37;3.40;99.90
22984;DHT22;11658;48.908;9.140;2024-01-16T13:48:04;5.00;99.90
22984;DHT22;11658;48.908;9.140;2024-01-16T13:50:32;3.50;99.90
22984;DHT22;11658;48.908;9.140;2024-01-16T13:52:58;3.60;99.90
22984;DHT22;11658;48.908;9.140;2024-01-16T13:55:24;3.10;99.90
22984;DHT22;11658;48.908;9.140;2024-01-16T13:57:50;4.10;99.90
22984;DHT22;11658;48.908;9.140;2024-01-16T14:00:16;2.60;99.90
22984;DHT22;11658;48.908;9.140;2024-01-16T14:02:46;2.60;99.90
22984;DHT22;11658;48.908;9.140;2024-01-16T14:05:17;4.50;99.90
22984;DHT22;11658;48.908;9.140;2024-01-16T14:07:49;2.40;99.90
22984;DHT22;11658;48.908;9.140;2024-01-16T14:10:19;2.40;99.90
22984;DHT22;11658;48.908;9.140;2024-01-16T14:12:46;2.50;99.90
22984;DHT22;11658;48.908;9.140;2024-01-16T14:15:17;2.20;99.90
22984;DHT22;11658;48.908;9.140;2024-01-16T14:17:47;2.30;99.90
22984;DHT22;11658;48.908;9.140;2024-01-16T14:20:14;2.70;99.90
22984;DHT22;11658;48.908;9.140;2024-01-16T14:22:40;2.40;99.90
22984;DHT22;11658;48.908;9.140;2024-01-16T14:25:10;3.80;99.90
22984;DHT22;11658;48.908;9.140;2024-01-16T14:27:48;2.60;99.90
22984;DHT22;11658;48.908;9.140;2024-01-16T14:30:20;3.10;99.90
22984;DHT22;11658;48.908;9.140;2024-01-16T14:32:46;2.20;99.90
22984;DHT22;11658;48.908;9.140;2024-01-16T14:35:13;2.20;99.90
22984;DHT22;11658;48.908;9.140;2024-01-16T14:37:40;2.90;99.90
22984;DHT22;11658;48.908;9.140;2024-01-16T14:40:09;2.00;99.90
22984;DHT22;11658;48.908;9.140;2024-01-16T14:42:51;2.10;99.90
22984;DHT22;11658;48.908;9.140;2024-01-16T14:45:22;3.20;99.90
22984;DHT22;11658;48.908;9.140;2024-01-16T14:47:48;2.00;99.90
22984;DHT22;11658;48.908;9.140;2024-01-16T14:50:15;2.20;99.90
22984;DHT22;11658;48.908;9.140;2024-01-16T14:52:45;3.80;99.90
22984;DHT22;11658;48.908;9.140;2024-01-16T14:55:11;3.80;99.90
22984;DHT22;11658;48.908;9.140;2024-01-16T14:57:40;3.20;99.90
22984;DHT22;11658;48.908;9.140;2024-01-16T15:00:11;2.20;99.90
22984;DHT22;11658;48.908;9.140;2024-01-16T15:03:00;2.20;99.90
22984;DHT22;11658;48.908;9.140;2024-01-16T15:05:25;2.00;99.90
22984;DHT22;11658;48.908;9.140;2024-01-16T15:07:51;3.40;99.90
22984;DHT22;11658;48.908;9.140;2024-01-16T15:10:17;2.60;99.90
22984;DHT22;11658;48.908;9.140;2024-01-16T15:12:44;3.20;99.90
22984;DHT22;11658;48.908;9.140;2024-01-16T15:15:11;2.90;99.90
22984;DHT22;11658;48.908;9.140;2024-01-16T15:17:41;2.90;99.90
22984;DHT22;11658;48.908;9.140;2024-01-16T15:20:07;3.10;99.90
22984;DHT22;11658;48.908;9.140;2024-01-16T15:22:43;1.60;99.90
22984;DHT22;11658;48.908;9.140;2024-01-16T15:25:10;1.50;99.90
22984;DHT22;11658;48.908;9.140;2024-01-16T15:27:38;1.90;99.90
22984;DHT22;11658;48.908;9.140;2024-01-16T15:30:04;1.20;99.90
22984;DHT22;11658;48.908;9.140;2024-01-16T15:32:30;1.20;99.90
22984;DHT22;11658;48.908;9.140;2024-01-16T15:34:57;1.10;99.90
22984;DHT22;11658;48.908;9.140;2024-01-16T15:37:23;2.30;99.90
22984;DHT22;11658;48.908;9.140;2024-01-16T15:39:48;0.90;99.90
22984;DHT22;11658;48.908;9.140;2024-01-16T15:42:14;0.90;99.90
22984;DHT22;11658;48.908;9.140;2024-01-16T15:44:40;0.80;99.90
22984;DHT22;11658;48.908;9.140;2024-01-16T15:47:05;0.80;99.90
22984;DHT22;11658;48.908;9.140;2024-01-16T15:49:31;2.10;99.90
22984;DHT22;11658;48.908;9.140;2024-01-16T15:51:57;0.50;99.90
22984;DHT22;11658;48.908;9.140;2024-01-16T15:54:27;1.80;99.90
22984;DHT22;11658;48.908;9.140;2024-01-16T15:56:53;0.30;99.90
22984;DHT22;11658;48.908;9.140;2024-01-16T15:59:21;0.20;99.90
22984;DHT22;11658;48.908;9.140;2024-01-16T16:01:47;0.10;99.90
22984;DHT22;11658;48.908;9.140;2024-01-16T16:04:13;-0.10;99.90
22984;DHT22;11658;48.908;9.140;2024-01-16T16:06:39;-0.40;99.90
22984;DHT22;11658;48.908;9.140;2024-01-16T16:09:06;-0.30;99.90
22984;DHT22;11658;48.908;9.140;2024-01-16T16:11:42;-0.50;99.90
22984;DHT22;11658;48.908;9.140;2024-01-16T16:14:13;-0.40;99.90
22984;DHT22;11658;48.908;9.140;2024-01-16T16:16:41;-0.70;99.90
22984;DHT22;11658;48.908;9.140;2024-01-16T16:19:06;1.00;99.90
22984;DHT22;11658;48.908;9.140;2024-01-16T16:21:33;-1.00;99.90
22984;DHT22;11658;48.908;9.140;2024-01-16T16:24:00;-0.90;99.90
22984;DHT22;11658;48.908;9.140;2024-01-16T16:29:04;-1.10;99.90
22984;DHT22;11658;48.908;9.140;2024-01-16T16:31:31;-1.10;99.90
22984;DHT22;11658;48.908;9.140;2024-01-16T16:33:58;-1.20;99.90
22984;DHT22;11658;48.908;9.140;2024-01-16T16:36:25;-1.30;99.90
22984;DHT22;11658;48.908;9.140;2024-01-16T16:38:51;-1.30;99.90
22984;DHT22;11658;48.908;9.140;2024-01-16T16:41:17;-1.40;99.90
22984;DHT22;11658;48.908;9.140;2024-01-16T16:43:43;-1.50;99.90
22984;DHT22;11658;48.908;9.140;2024-01-16T16:46:08;-1.50;99.90
22984;DHT22;11658;48.908;9.140;2024-01-16T16:48:34;0.10;99.90
22984;DHT22;11658;48.908;9.140;2024-01-16T16:51:00;-1.60;99.90
22984;DHT22;11658;48.908;9.140;2024-01-16T16:53:25;-0.10;99.90
22984;DHT22;11658;48.908;9.140;2024-01-16T16:55:51;-1.80;99.90
22984;DHT22;11658;48.908;9.140;2024-01-16T16:58:16;-1.70;99.90
22984;DHT22;11658;48.908;9.140;2024-01-16T17:00:42;-1.10;99.90
22984;DHT22;11658;48.908;9.140;2024-01-16T17:03:08;-1.20;99.90
22984;DHT22;11658;48.908;9.140;2024-01-16T17:05:33;-2.00;99.90
22984;DHT22;11658;48.908;9.140;2024-01-16T17:07:59;-1.80;99.90
22984;DHT22;11658;48.908;9.140;2024-01-16T17:10:24;-1.80;99.90
22984;DHT22;11658;48.908;9.140;2024-01-16T17:12:50;0.30;99.90
22984;DHT22;11658;48.908;9.140;2024-01-16T17:15:16;-1.60;99.90
22984;DHT22;11658;48.908;9.140;2024-01-16T17:17:41;-1.90;99.90
22984;DHT22;11658;48.908;9.140;2024-01-16T17:20:10;-1.90;99.90
22984;DHT22;11658;48.908;9.140;2024-01-16T17:22:40;-1.90;99.90
22984;DHT22;11658;48.908;9.140;2024-01-16T17:25:05;-1.90;99.90
22984;DHT22;11658;48.908;9.140;2024-01-16T17:27:32;-1.80;99.90
22984;DHT22;11658;48.908;9.140;2024-01-16T17:29:57;0.40;99.90
22984;DHT22;11658;48.908;9.140;2024-01-16T17:32:23;-1.80;99.90
22984;DHT22;11658;48.908;9.140;2024-01-16T17:34:49;-1.90;99.90
22984;DHT22;11658;48.908;9.140;2024-01-16T17:37:15;-2.00;99.90
22984;DHT22;11658;48.908;9.140;2024-01-16T17:39:41;-1.90;99.90
22984;DHT22;11658;48.908;9.140;2024-01-16T17:42:08;-2.00;99.90
22984;DHT22;11658;48.908;9.140;2024-01-16T17:44:48;-1.10;99.90
22984;DHT22;11658;48.908;9.140;2024-01-16T17:47:15;-2.00;99.90
22984;DHT22;11658;48.908;9.140;2024-01-16T17:49:40;-2.00;99.90
22984;DHT22;11658;48.908;9.140;2024-01-16T17:52:06;-0.70;99.90
22984;DHT22;11658;48.908;9.140;2024-01-16T17:54:44;-2.00;99.90
22984;DHT22;11658;48.908;9.140;2024-01-16T17:57:09;-2.00;99.90
22984;DHT22;11658;48.908;9.140;2024-01-16T17:59:39;-1.30;99.90
22984;DHT22;11658;48.908;9.140;2024-01-16T18:02:05;-2.10;99.90
22984;DHT22;11658;48.908;9.140;2024-01-16T18:04:35;-2.30;99.90
22984;DHT22;11658;48.908;9.140;2024-01-16T18:07:03;-2.50;99.90
22984;DHT22;11658;48.908;9.140;2024-01-16T18:09:29;-2.30;99.90
22984;DHT22;11658;48.908;9.140;2024-01-16T18:11:56;-2.30;99.90
22984;DHT22;11658;48.908;9.140;2024-01-16T18:14:22;-2.20;99.90
22984;DHT22;11658;48.908;9.140;2024-01-16T18:16:53;-2.30;99.90
22984;DHT22;11658;48.908;9.140;2024-01-16T18:19:25;-2.30;99.90
22984;DHT22;11658;48.908;9.140;2024-01-16T18:21:51;-2.50;99.90
22984;DHT22;11658;48.908;9.140;2024-01-16T18:24:17;-2.50;99.90
22984;DHT22;11658;48.908;9.140;2024-01-16T18:26:43;-1.70;99.90
22984;DHT22;11658;48.908;9.140;2024-01-16T18:29:13;-2.60;99.90
22984;DHT22;11658;48.908;9.140;2024-01-16T18:31:39;-2.70;99.90
22984;DHT22;11658;48.908;9.140;2024-01-16T18:34:06;-2.80;99.90
22984;DHT22;11658;48.908;9.140;2024-01-16T18:36:34;-1.80;99.90
22984;DHT22;11658;48.908;9.140;2024-01-16T18:39:01;-3.00;99.90
22984;DHT22;11658;48.908;9.140;2024-01-16T18:41:29;-2.00;99.90
22984;DHT22;11658;48.908;9.140;2024-01-16T18:43:54;-2.80;99.90
22984;DHT22;11658;48.908;9.140;2024-01-16T18:46:20;-2.80;99.90
22984;DHT22;11658;48.908;9.140;2024-01-16T18:48:48;-2.90;99.90
22984;DHT22;11658;48.908;9.140;2024-01-16T18:51:14;-2.90;99.90
22984;DHT22;11658;48.908;9.140;2024-01-16T18:53:40;-3.00;99.90
22984;DHT22;11658;48.908;9.140;2024-01-16T18:56:05;-1.90;99.90
22984;DHT22;11658;48.908;9.140;2024-01-16T18:58:32;-2.10;99.90
22984;DHT22;11658;48.908;9.140;2024-01-16T19:00:58;-2.10;99.90
22984;DHT22;11658;48.908;9.140;2024-01-16T19:03:26;-2.50;99.90
22984;DHT22;11658;48.908;9.140;2024-01-16T19:05:52;-3.40;99.90
22984;DHT22;11658;48.908;9.140;2024-01-16T19:08:24;-3.10;99.90
22984;DHT22;11658;48.908;9.140;2024-01-16T19:10:50;-3.20;99.90
22984;DHT22;11658;48.908;9.140;2024-01-16T19:13:16;-3.50;99.90
22984;DHT22;11658;48.908;9.140;2024-01-16T19:15:42;-1.20;99.90
22984;DHT22;11658;48.908;9.140;2024-01-16T19:18:08;-3.30;99.90
22984;DHT22;11658;48.908;9.140;2024-01-16T19:20:33;-3.30;99.90
22984;DHT22;11658;48.908;9.140;2024-01-16T19:22:59;-3.30;99.90
22984;DHT22;11658;48.908;9.140;2024-01-16T19:25:24;-3.40;99.90
22984;DHT22;11658;48.908;9.140;2024-01-16T19:27:51;-3.40;99.90
22984;DHT22;11658;48.908;9.140;2024-01-16T19:30:17;-1.70;99.90
22984;DHT22;11658;48.908;9.140;2024-01-16T19:32:45;-3.30;99.90
22984;DHT22;11658;48.908;9.140;2024-01-16T19:35:11;-3.50;99.90
22984;DHT22;11658;48.908;9.140;2024-01-16T19:37:37;-3.50;99.90
22984;DHT22;11658;48.908;9.140;2024-01-16T19:40:05;-3.40;99.90
22984;DHT22;11658;48.908;9.140;2024-01-16T19:42:33;-3.50;99.90
22984;DHT22;11658;48.908;9.140;2024-01-16T19:45:00;-3.50;99.90
22984;DHT22;11658;48.908;9.140;2024-01-16T19:47:25;-3.50;99.90
22984;DHT22;11658;48.908;9.140;2024-01-16T19:49:51;-3.50;99.90
22984;DHT22;11658;48.908;9.140;2024-01-16T19:52:18;-3.70;99.90
22984;DHT22;11658;48.908;9.140;2024-01-16T19:54:44;-3.60;99.90
22984;DHT22;11658;48.908;9.140;2024-01-16T19:57:10;-3.60;99.90
22984;DHT22;11658;48.908;9.140;2024-01-16T19:59:37;-3.70;99.90
22984;DHT22;11658;48.908;9.140;2024-01-16T20:02:03;-2.20;99.90
22984;DHT22;11658;48.908;9.140;2024-01-16T20:04:32;-3.80;99.90
22984;DHT22;11658;48.908;9.140;2024-01-16T20:06:58;-3.80;99.90
22984;DHT22;11658;48.908;9.140;2024-01-16T20:09:23;-3.90;99.90
22984;DHT22;11658;48.908;9.140;2024-01-16T20:11:50;-3.90;99.90
22984;DHT22;11658;48.908;9.140;2024-01-16T20:14:15;-3.90;99.90
22984;DHT22;11658;48.908;9.140;2024-01-16T20:16:41;-3.90;99.90
22984;DHT22;11658;48.908;9.140;2024-01-16T20:19:07;-3.90;99.90
22984;DHT22;11658;48.908;9.140;2024-01-16T20:21:34;-3.90;99.90
22984;DHT22;11658;48.908;9.140;2024-01-16T20:24:00;-4.10;99.90
22984;DHT22;11658;48.908;9.140;2024-01-16T20:26:28;-4.00;99.90
22984;DHT22;11658;48.908;9.140;2024-01-16T20:28:54;-3.90;99.90
22984;DHT22;11658;48.908;9.140;2024-01-16T20:31:23;-3.00;99.90
22984;DHT22;11658;48.908;9.140;2024-01-16T20:33:51;-4.00;99.90
22984;DHT22;11658;48.908;9.140;2024-01-16T20:36:17;-4.00;99.90
22984;DHT22;11658;48.908;9.140;2024-01-16T20:38:44;-4.00;99.90
22984;DHT22;11658;48.908;9.140;2024-01-16T20:41:10;-4.00;99.90
22984;DHT22;11658;48.908;9.140;2024-01-16T20:43:36;-2.50;99.90
22984;DHT22;11658;48.908;9.140;2024-01-16T20:46:03;-2.60;99.90
22984;DHT22;11658;48.908;9.140;2024-01-16T20:48:29;-3.90;99.90
22984;DHT22;11658;48.908;9.140;2024-01-16T20:50:55;-4.00;99.90
22984;DHT22;11658;48.908;9.140;2024-01-16T20:53:21;-4.10;99.90
22984;DHT22;11658;48.908;9.140;2024-01-16T20:55:47;-4.00;99.90
22984;DHT22;11658;48.908;9.140;2024-01-16T20:58:13;-3.90;99.90
22984;DHT22;11658;48.908;9.140;2024-01-16T21:00:39;-4.00;99.90
22984;DHT22;11658;48.908;9.140;2024-01-16T21:03:04;-4.00;99.90